sensor_id;sensor_type;location;lat;lon;timestamp;P1;durP1;ratioP1;P2;durP2;ratioP2
19758;SDS011;10038;42.662;23.278;2023-02-12T00:00:14;8.40;;;4.95;;
19758;SDS011;10038;42.662;23.278;2023-02-12T00:02:40;11.10;;;5.15;;
19758;SDS011;10038;42.662;23.278;2023-02-12T00:05:07;12.25;;;4.68;;
19758;SDS011;10038;42.662;23.278;2023-02-12T00:07:35;10.52;;;4.80;;
19758;SDS011;10038;42.662;23.278;2023-02-12T00:10:02;9.00;;;4.80;;
19758;SDS011;10038;42.662;23.278;2023-02-12T00:12:28;8.27;;;4.50;;
19758;SDS011;10038;42.662;23.278;2023-02-12T00:14:55;9.27;;;4.90;;
19758;SDS011;10038;42.662;23.278;2023-02-12T00:17:22;7.85;;;4.60;;
19758;SDS011;10038;42.662;23.278;2023-02-12T00:19:49;8.45;;;5.10;;
19758;SDS011;10038;42.662;23.278;2023-02-12T00:22:15;9.75;;;4.72;;
19758;SDS011;10038;42.662;23.278;2023-02-12T00:24:43;10.63;;;4.82;;
19758;SDS011;10038;42.662;23.278;2023-02-12T00:27:10;9.80;;;6.03;;
19758;SDS011;10038;42.662;23.278;2023-02-12T00:29:36;11.35;;;5.07;;
19758;SDS011;10038;42.662;23.278;2023-02-12T00:32:03;11.13;;;5.40;;
19758;SDS011;10038;42.662;23.278;2023-02-12T00:34:29;10.60;;;4.45;;
19758;SDS011;10038;42.662;23.278;2023-02-12T00:36:56;10.18;;;4.82;;
19758;SDS011;10038;42.662;23.278;2023-02-12T00:39:22;11.82;;;5.13;;
19758;SDS011;10038;42.662;23.278;2023-02-12T00:41:56;8.80;;;3.25;;
19758;SDS011;10038;42.662;23.278;2023-02-12T00:44:22;5.82;;;3.70;;
19758;SDS011;10038;42.662;23.278;2023-02-12T00:46:51;8.50;;;3.85;;
19758;SDS011;10038;42.662;23.278;2023-02-12T00:49:17;8.20;;;4.55;;
19758;SDS011;10038;42.662;23.278;2023-02-12T00:51:44;8.10;;;4.15;;
19758;SDS011;10038;42.662;23.278;2023-02-12T00:54:10;9.75;;;4.55;;
19758;SDS011;10038;42.662;23.278;2023-02-12T00:56:37;9.13;;;4.97;;
19758;SDS011;10038;42.662;23.278;2023-02-12T00:59:05;8.50;;;4.95;;
19758;SDS011;10038;42.662;23.278;2023-02-12T01:01:32;14.68;;;5.57;;
19758;SDS011;10038;42.662;23.278;2023-02-12T01:04:00;8.60;;;4.15;;
19758;SDS011;10038;42.662;23.278;2023-02-12T01:06:26;8.10;;;4.28;;
19758;SDS011;10038;42.662;23.278;2023-02-12T01:08:53;6.05;;;3.80;;
19758;SDS011;10038;42.662;23.278;2023-02-12T01:11:21;15.32;;;6.32;;
19758;SDS011;10038;42.662;23.278;2023-02-12T01:13:50;20.00;;;8.68;;
19758;SDS011;10038;42.662;23.278;2023-02-12T01:16:18;11.18;;;5.45;;
19758;SDS011;10038;42.662;23.278;2023-02-12T01:18:45;8.88;;;4.72;;
19758;SDS011;10038;42.662;23.278;2023-02-12T01:21:15;8.70;;;3.95;;
19758;SDS011;10038;42.662;23.278;2023-02-12T01:23:42;10.48;;;5.18;;
19758;SDS011;10038;42.662;23.278;2023-02-12T01:26:09;7.85;;;5.45;;
19758;SDS011;10038;42.662;23.278;2023-02-12T01:28:36;11.38;;;5.28;;
19758;SDS011;10038;42.662;23.278;2023-02-12T01:31:06;9.30;;;4.85;;
19758;SDS011;10038;42.662;23.278;2023-02-12T01:33:36;12.73;;;5.25;;
19758;SDS011;10038;42.662;23.278;2023-02-12T01:36:03;11.20;;;5.28;;
19758;SDS011;10038;42.662;23.278;2023-02-12T01:38:30;9.68;;;4.75;;
19758;SDS011;10038;42.662;23.278;2023-02-12T01:41:00;8.95;;;5.15;;
19758;SDS011;10038;42.662;23.278;2023-02-12T01:43:27;13.20;;;7.93;;
19758;SDS011;10038;42.662;23.278;2023-02-12T01:45:57;11.20;;;5.63;;
19758;SDS011;10038;42.662;23.278;2023-02-12T01:48:28;14.13;;;5.65;;
19758;SDS011;10038;42.662;23.278;2023-02-12T01:50:57;12.82;;;7.03;;
19758;SDS011;10038;42.662;23.278;2023-02-12T01:53:26;11.63;;;6.70;;
19758;SDS011;10038;42.662;23.278;2023-02-12T01:55:55;9.60;;;5.35;;
19758;SDS011;10038;42.662;23.278;2023-02-12T01:58:24;13.98;;;6.00;;
19758;SDS011;10038;42.662;23.278;2023-02-12T02:00:51;8.32;;;5.50;;
19758;SDS011;10038;42.662;23.278;2023-02-12T02:03:18;9.65;;;4.88;;
19758;SDS011;10038;42.662;23.278;2023-02-12T02:05:46;9.20;;;5.15;;
19758;SDS011;10038;42.662;23.278;2023-02-12T02:08:16;14.25;;;6.50;;
19758;SDS011;10038;42.662;23.278;2023-02-12T02:10:43;7.40;;;5.07;;
19758;SDS011;10038;42.662;23.278;2023-02-12T02:13:09;9.07;;;4.40;;
19758;SDS011;10038;42.662;23.278;2023-02-12T02:15:55;9.05;;;6.75;;
19758;SDS011;10038;42.662;23.278;2023-02-12T02:18:23;10.05;;;5.40;;
19758;SDS011;10038;42.662;23.278;2023-02-12T02:21:09;9.57;;;5.97;;
19758;SDS011;10038;42.662;23.278;2023-02-12T02:26:32;10.90;;;6.35;;
19758;SDS011;10038;42.662;23.278;2023-02-12T02:29:10;14.23;;;5.38;;
19758;SDS011;10038;42.662;23.278;2023-02-12T02:31:42;12.90;;;6.60;;
19758;SDS011;10038;42.662;23.278;2023-02-12T02:34:10;10.80;;;5.68;;
19758;SDS011;10038;42.662;23.278;2023-02-12T02:36:42;7.75;;;4.78;;
19758;SDS011;10038;42.662;23.278;2023-02-12T02:39:12;9.68;;;5.70;;
19758;SDS011;10038;42.662;23.278;2023-02-12T02:41:42;9.60;;;5.72;;
19758;SDS011;10038;42.662;23.278;2023-02-12T02:44:12;9.93;;;5.55;;
19758;SDS011;10038;42.662;23.278;2023-02-12T02:46:39;11.20;;;6.40;;
19758;SDS011;10038;42.662;23.278;2023-02-12T02:49:09;11.60;;;5.45;;
19758;SDS011;10038;42.662;23.278;2023-02-12T02:51:39;14.48;;;6.70;;
19758;SDS011;10038;42.662;23.278;2023-02-12T02:54:07;9.77;;;5.93;;
19758;SDS011;10038;42.662;23.278;2023-02-12T02:56:36;11.85;;;6.97;;
19758;SDS011;10038;42.662;23.278;2023-02-12T02:59:04;14.05;;;6.43;;
19758;SDS011;10038;42.662;23.278;2023-02-12T03:01:31;12.30;;;6.30;;
19758;SDS011;10038;42.662;23.278;2023-02-12T03:04:01;14.60;;;6.47;;
19758;SDS011;10038;42.662;23.278;2023-02-12T03:06:33;13.85;;;6.53;;
19758;SDS011;10038;42.662;23.278;2023-02-12T03:09:05;12.15;;;6.75;;
19758;SDS011;10038;42.662;23.278;2023-02-12T03:11:34;8.65;;;5.00;;
19758;SDS011;10038;42.662;23.278;2023-02-12T03:14:04;13.50;;;6.57;;
19758;SDS011;10038;42.662;23.278;2023-02-12T03:16:32;15.27;;;6.50;;
19758;SDS011;10038;42.662;23.278;2023-02-12T03:19:00;10.40;;;5.45;;
19758;SDS011;10038;42.662;23.278;2023-02-12T03:21:29;10.88;;;5.50;;
19758;SDS011;10038;42.662;23.278;2023-02-12T03:23:59;12.80;;;7.13;;
19758;SDS011;10038;42.662;23.278;2023-02-12T03:26:32;16.20;;;7.03;;
19758;SDS011;10038;42.662;23.278;2023-02-12T03:29:01;10.30;;;6.25;;
19758;SDS011;10038;42.662;23.278;2023-02-12T03:31:29;12.48;;;6.30;;
19758;SDS011;10038;42.662;23.278;2023-02-12T03:33:59;9.93;;;5.53;;
19758;SDS011;10038;42.662;23.278;2023-02-12T03:36:29;15.57;;;6.40;;
19758;SDS011;10038;42.662;23.278;2023-02-12T03:39:00;14.35;;;7.13;;
19758;SDS011;10038;42.662;23.278;2023-02-12T03:41:31;11.90;;;6.50;;
19758;SDS011;10038;42.662;23.278;2023-02-12T03:44:02;18.77;;;8.57;;
19758;SDS011;10038;42.662;23.278;2023-02-12T03:46:32;14.75;;;7.50;;
19758;SDS011;10038;42.662;23.278;2023-02-12T03:49:03;14.00;;;6.45;;
19758;SDS011;10038;42.662;23.278;2023-02-12T03:51:33;12.75;;;7.43;;
19758;SDS011;10038;42.662;23.278;2023-02-12T03:54:02;16.17;;;8.30;;
19758;SDS011;10038;42.662;23.278;2023-02-12T03:56:31;15.38;;;6.93;;
19758;SDS011;10038;42.662;23.278;2023-02-12T03:58:58;18.55;;;7.72;;
19758;SDS011;10038;42.662;23.278;2023-02-12T04:01:25;15.98;;;6.78;;
19758;SDS011;10038;42.662;23.278;2023-02-12T04:03:51;15.02;;;7.13;;
19758;SDS011;10038;42.662;23.278;2023-02-12T04:06:19;16.92;;;6.97;;
19758;SDS011;10038;42.662;23.278;2023-02-12T04:08:46;9.98;;;6.68;;
19758;SDS011;10038;42.662;23.278;2023-02-12T04:11:16;12.32;;;6.47;;
19758;SDS011;10038;42.662;23.278;2023-02-12T04:13:47;13.48;;;7.05;;
19758;SDS011;10038;42.662;23.278;2023-02-12T04:16:21;11.45;;;6.40;;
19758;SDS011;10038;42.662;23.278;2023-02-12T04:18:50;11.50;;;6.78;;
19758;SDS011;10038;42.662;23.278;2023-02-12T04:21:20;11.57;;;6.63;;
19758;SDS011;10038;42.662;23.278;2023-02-12T04:23:55;14.48;;;7.28;;
19758;SDS011;10038;42.662;23.278;2023-02-12T04:26:31;16.98;;;8.30;;
19758;SDS011;10038;42.662;23.278;2023-02-12T04:29:04;22.65;;;10.63;;
19758;SDS011;10038;42.662;23.278;2023-02-12T04:31:36;20.70;;;11.18;;
19758;SDS011;10038;42.662;23.278;2023-02-12T04:34:05;17.50;;;11.00;;
19758;SDS011;10038;42.662;23.278;2023-02-12T04:36:33;21.17;;;9.82;;
19758;SDS011;10038;42.662;23.278;2023-02-12T04:39:01;22.20;;;9.68;;
19758;SDS011;10038;42.662;23.278;2023-02-12T04:41:29;18.20;;;10.25;;
19758;SDS011;10038;42.662;23.278;2023-02-12T04:44:11;15.30;;;10.38;;
19758;SDS011;10038;42.662;23.278;2023-02-12T04:46:38;18.55;;;7.95;;
19758;SDS011;10038;42.662;23.278;2023-02-12T04:49:04;10.77;;;7.63;;
19758;SDS011;10038;42.662;23.278;2023-02-12T04:51:31;15.93;;;8.35;;
19758;SDS011;10038;42.662;23.278;2023-02-12T04:53:57;15.93;;;6.97;;
19758;SDS011;10038;42.662;23.278;2023-02-12T04:56:24;13.00;;;6.65;;
19758;SDS011;10038;42.662;23.278;2023-02-12T04:58:54;16.98;;;7.47;;
19758;SDS011;10038;42.662;23.278;2023-02-12T05:01:21;18.30;;;6.40;;
19758;SDS011;10038;42.662;23.278;2023-02-12T05:03:50;16.00;;;6.00;;
19758;SDS011;10038;42.662;23.278;2023-02-12T05:06:17;13.38;;;7.93;;
19758;SDS011;10038;42.662;23.278;2023-02-12T05:08:43;12.10;;;6.28;;
19758;SDS011;10038;42.662;23.278;2023-02-12T05:11:10;23.15;;;8.85;;
19758;SDS011;10038;42.662;23.278;2023-02-12T05:13:37;11.98;;;6.45;;
19758;SDS011;10038;42.662;23.278;2023-02-12T05:16:05;12.93;;;7.45;;
19758;SDS011;10038;42.662;23.278;2023-02-12T05:18:33;13.82;;;6.35;;
19758;SDS011;10038;42.662;23.278;2023-02-12T05:21:01;8.40;;;5.72;;
19758;SDS011;10038;42.662;23.278;2023-02-12T05:23:27;13.35;;;8.32;;
19758;SDS011;10038;42.662;23.278;2023-02-12T05:25:56;16.60;;;7.05;;
19758;SDS011;10038;42.662;23.278;2023-02-12T05:28:23;13.77;;;6.85;;
19758;SDS011;10038;42.662;23.278;2023-02-12T05:30:50;11.23;;;6.10;;
19758;SDS011;10038;42.662;23.278;2023-02-12T05:33:18;16.90;;;7.63;;
19758;SDS011;10038;42.662;23.278;2023-02-12T05:35:44;14.75;;;7.47;;
19758;SDS011;10038;42.662;23.278;2023-02-12T05:38:11;14.07;;;7.45;;
19758;SDS011;10038;42.662;23.278;2023-02-12T05:40:37;15.70;;;7.88;;
19758;SDS011;10038;42.662;23.278;2023-02-12T05:43:04;18.15;;;8.10;;
19758;SDS011;10038;42.662;23.278;2023-02-12T05:45:31;16.70;;;8.30;;
19758;SDS011;10038;42.662;23.278;2023-02-12T05:48:00;15.30;;;7.93;;
19758;SDS011;10038;42.662;23.278;2023-02-12T05:50:30;12.05;;;6.95;;
19758;SDS011;10038;42.662;23.278;2023-02-12T05:52:58;17.58;;;8.45;;
19758;SDS011;10038;42.662;23.278;2023-02-12T05:55:24;13.00;;;6.78;;
19758;SDS011;10038;42.662;23.278;2023-02-12T05:57:51;11.70;;;7.53;;
19758;SDS011;10038;42.662;23.278;2023-02-12T06:00:17;12.07;;;6.32;;
19758;SDS011;10038;42.662;23.278;2023-02-12T06:02:45;9.93;;;5.95;;
19758;SDS011;10038;42.662;23.278;2023-02-12T06:05:12;16.55;;;8.82;;
19758;SDS011;10038;42.662;23.278;2023-02-12T06:07:43;18.15;;;8.13;;
19758;SDS011;10038;42.662;23.278;2023-02-12T06:10:10;13.30;;;6.55;;
19758;SDS011;10038;42.662;23.278;2023-02-12T06:12:37;14.82;;;6.72;;
19758;SDS011;10038;42.662;23.278;2023-02-12T06:15:04;9.38;;;5.15;;
19758;SDS011;10038;42.662;23.278;2023-02-12T06:17:32;11.85;;;7.63;;
19758;SDS011;10038;42.662;23.278;2023-02-12T06:20:02;15.98;;;7.40;;
19758;SDS011;10038;42.662;23.278;2023-02-12T06:22:31;15.25;;;7.15;;
19758;SDS011;10038;42.662;23.278;2023-02-12T06:24:58;10.88;;;6.28;;
19758;SDS011;10038;42.662;23.278;2023-02-12T06:27:25;11.43;;;7.65;;
19758;SDS011;10038;42.662;23.278;2023-02-12T06:29:51;9.57;;;5.97;;
19758;SDS011;10038;42.662;23.278;2023-02-12T06:32:18;17.92;;;6.40;;
19758;SDS011;10038;42.662;23.278;2023-02-12T06:34:44;11.18;;;6.95;;
19758;SDS011;10038;42.662;23.278;2023-02-12T06:37:11;13.27;;;7.50;;
19758;SDS011;10038;42.662;23.278;2023-02-12T06:39:38;12.77;;;7.88;;
19758;SDS011;10038;42.662;23.278;2023-02-12T06:42:06;15.70;;;7.35;;
19758;SDS011;10038;42.662;23.278;2023-02-12T06:44:33;10.20;;;7.00;;
19758;SDS011;10038;42.662;23.278;2023-02-12T06:46:59;9.80;;;6.15;;
19758;SDS011;10038;42.662;23.278;2023-02-12T06:49:26;16.90;;;7.28;;
19758;SDS011;10038;42.662;23.278;2023-02-12T06:51:52;16.02;;;7.68;;
19758;SDS011;10038;42.662;23.278;2023-02-12T06:54:19;12.60;;;8.43;;
19758;SDS011;10038;42.662;23.278;2023-02-12T06:56:45;14.20;;;8.13;;
19758;SDS011;10038;42.662;23.278;2023-02-12T06:59:14;17.25;;;8.35;;
19758;SDS011;10038;42.662;23.278;2023-02-12T07:01:40;27.52;;;11.70;;
19758;SDS011;10038;42.662;23.278;2023-02-12T07:04:07;17.13;;;9.70;;
19758;SDS011;10038;42.662;23.278;2023-02-12T07:06:34;17.50;;;9.48;;
19758;SDS011;10038;42.662;23.278;2023-02-12T07:09:00;14.48;;;8.93;;
19758;SDS011;10038;42.662;23.278;2023-02-12T07:11:28;17.25;;;9.65;;
19758;SDS011;10038;42.662;23.278;2023-02-12T07:13:54;22.23;;;11.43;;
19758;SDS011;10038;42.662;23.278;2023-02-12T07:16:22;18.77;;;9.90;;
19758;SDS011;10038;42.662;23.278;2023-02-12T07:18:49;18.45;;;9.05;;
19758;SDS011;10038;42.662;23.278;2023-02-12T07:21:16;15.50;;;8.32;;
19758;SDS011;10038;42.662;23.278;2023-02-12T07:23:44;15.60;;;8.85;;
19758;SDS011;10038;42.662;23.278;2023-02-12T07:26:12;17.67;;;8.23;;
19758;SDS011;10038;42.662;23.278;2023-02-12T07:28:41;21.45;;;9.48;;
19758;SDS011;10038;42.662;23.278;2023-02-12T07:31:08;16.05;;;8.10;;
19758;SDS011;10038;42.662;23.278;2023-02-12T07:33:37;18.05;;;7.97;;
19758;SDS011;10038;42.662;23.278;2023-02-12T07:36:07;15.25;;;8.55;;
19758;SDS011;10038;42.662;23.278;2023-02-12T07:38:34;18.42;;;9.50;;
19758;SDS011;10038;42.662;23.278;2023-02-12T07:41:07;17.25;;;10.18;;
19758;SDS011;10038;42.662;23.278;2023-02-12T07:43:33;16.55;;;9.05;;
19758;SDS011;10038;42.662;23.278;2023-02-12T07:46:04;15.70;;;8.38;;
19758;SDS011;10038;42.662;23.278;2023-02-12T07:48:31;14.02;;;7.68;;
19758;SDS011;10038;42.662;23.278;2023-02-12T07:51:02;14.85;;;8.80;;
19758;SDS011;10038;42.662;23.278;2023-02-12T07:53:29;13.07;;;7.65;;
19758;SDS011;10038;42.662;23.278;2023-02-12T07:56:02;18.63;;;10.55;;
19758;SDS011;10038;42.662;23.278;2023-02-12T07:58:29;18.42;;;10.23;;
19758;SDS011;10038;42.662;23.278;2023-02-12T08:00:55;32.15;;;19.25;;
19758;SDS011;10038;42.662;23.278;2023-02-12T08:03:26;24.38;;;13.40;;
19758;SDS011;10038;42.662;23.278;2023-02-12T08:05:53;22.98;;;11.50;;
19758;SDS011;10038;42.662;23.278;2023-02-12T08:08:20;20.13;;;12.40;;
19758;SDS011;10038;42.662;23.278;2023-02-12T08:10:47;22.20;;;11.80;;
19758;SDS011;10038;42.662;23.278;2023-02-12T08:13:13;15.88;;;9.52;;
19758;SDS011;10038;42.662;23.278;2023-02-12T08:15:40;30.30;;;15.20;;
19758;SDS011;10038;42.662;23.278;2023-02-12T08:18:06;33.25;;;16.90;;
19758;SDS011;10038;42.662;23.278;2023-02-12T08:20:33;80.32;;;42.92;;
19758;SDS011;10038;42.662;23.278;2023-02-12T08:22:59;203.90;;;74.20;;
19758;SDS011;10038;42.662;23.278;2023-02-12T08:25:27;64.43;;;37.22;;
19758;SDS011;10038;42.662;23.278;2023-02-12T08:27:53;55.47;;;31.65;;
19758;SDS011;10038;42.662;23.278;2023-02-12T08:30:20;42.78;;;27.58;;
19758;SDS011;10038;42.662;23.278;2023-02-12T08:32:47;27.95;;;16.25;;
19758;SDS011;10038;42.662;23.278;2023-02-12T08:35:14;22.98;;;14.52;;
19758;SDS011;10038;42.662;23.278;2023-02-12T08:37:40;20.70;;;11.57;;
19758;SDS011;10038;42.662;23.278;2023-02-12T08:40:07;20.80;;;11.77;;
19758;SDS011;10038;42.662;23.278;2023-02-12T08:42:35;20.38;;;10.52;;
19758;SDS011;10038;42.662;23.278;2023-02-12T08:45:02;24.63;;;13.32;;
19758;SDS011;10038;42.662;23.278;2023-02-12T08:47:29;19.20;;;11.88;;
19758;SDS011;10038;42.662;23.278;2023-02-12T08:49:55;54.97;;;25.25;;
19758;SDS011;10038;42.662;23.278;2023-02-12T08:52:21;37.97;;;22.88;;
19758;SDS011;10038;42.662;23.278;2023-02-12T08:54:48;29.08;;;19.05;;
19758;SDS011;10038;42.662;23.278;2023-02-12T08:57:14;26.92;;;17.15;;
19758;SDS011;10038;42.662;23.278;2023-02-12T08:59:45;28.60;;;15.30;;
19758;SDS011;10038;42.662;23.278;2023-02-12T09:02:13;28.00;;;15.55;;
19758;SDS011;10038;42.662;23.278;2023-02-12T09:04:40;25.10;;;13.82;;
19758;SDS011;10038;42.662;23.278;2023-02-12T09:07:06;18.95;;;11.50;;
19758;SDS011;10038;42.662;23.278;2023-02-12T09:09:34;25.65;;;14.25;;
19758;SDS011;10038;42.662;23.278;2023-02-12T09:12:00;21.48;;;10.73;;
19758;SDS011;10038;42.662;23.278;2023-02-12T09:14:27;24.05;;;11.35;;
19758;SDS011;10038;42.662;23.278;2023-02-12T09:16:56;24.42;;;11.73;;
19758;SDS011;10038;42.662;23.278;2023-02-12T09:19:22;21.92;;;11.05;;
19758;SDS011;10038;42.662;23.278;2023-02-12T09:21:52;23.25;;;12.75;;
19758;SDS011;10038;42.662;23.278;2023-02-12T09:24:18;21.27;;;12.98;;
19758;SDS011;10038;42.662;23.278;2023-02-12T09:26:45;22.33;;;12.35;;
19758;SDS011;10038;42.662;23.278;2023-02-12T09:29:11;22.83;;;12.90;;
19758;SDS011;10038;42.662;23.278;2023-02-12T09:31:38;25.17;;;12.45;;
19758;SDS011;10038;42.662;23.278;2023-02-12T09:34:05;19.95;;;11.32;;
19758;SDS011;10038;42.662;23.278;2023-02-12T09:36:32;23.05;;;13.70;;
19758;SDS011;10038;42.662;23.278;2023-02-12T09:39:00;23.10;;;12.02;;
19758;SDS011;10038;42.662;23.278;2023-02-12T09:44:16;29.83;;;12.80;;
19758;SDS011;10038;42.662;23.278;2023-02-12T09:46:45;24.90;;;14.00;;
19758;SDS011;10038;42.662;23.278;2023-02-12T09:49:20;25.05;;;13.57;;
19758;SDS011;10038;42.662;23.278;2023-02-12T09:51:49;29.80;;;15.50;;
19758;SDS011;10038;42.662;23.278;2023-02-12T09:54:18;38.17;;;15.45;;
19758;SDS011;10038;42.662;23.278;2023-02-12T09:56:47;32.25;;;16.63;;
19758;SDS011;10038;42.662;23.278;2023-02-12T09:59:19;25.42;;;13.63;;
19758;SDS011;10038;42.662;23.278;2023-02-12T10:01:49;25.05;;;14.93;;
19758;SDS011;10038;42.662;23.278;2023-02-12T10:04:18;31.10;;;16.30;;
19758;SDS011;10038;42.662;23.278;2023-02-12T10:06:46;24.25;;;14.68;;
19758;SDS011;10038;42.662;23.278;2023-02-12T10:09:19;23.33;;;13.85;;
19758;SDS011;10038;42.662;23.278;2023-02-12T10:11:55;35.67;;;16.98;;
19758;SDS011;10038;42.662;23.278;2023-02-12T10:17:11;47.63;;;20.88;;
19758;SDS011;10038;42.662;23.278;2023-02-12T10:19:51;30.55;;;16.83;;
19758;SDS011;10038;42.662;23.278;2023-02-12T10:22:26;37.33;;;18.27;;
19758;SDS011;10038;42.662;23.278;2023-02-12T10:25:02;32.72;;;15.95;;
19758;SDS011;10038;42.662;23.278;2023-02-12T10:27:36;29.83;;;17.77;;
19758;SDS011;10038;42.662;23.278;2023-02-12T10:30:03;29.45;;;15.73;;
19758;SDS011;10038;42.662;23.278;2023-02-12T10:32:39;36.58;;;16.90;;
19758;SDS011;10038;42.662;23.278;2023-02-12T10:35:13;28.67;;;15.02;;
19758;SDS011;10038;42.662;23.278;2023-02-12T10:37:41;25.25;;;14.77;;
19758;SDS011;10038;42.662;23.278;2023-02-12T10:40:13;28.70;;;15.55;;
19758;SDS011;10038;42.662;23.278;2023-02-12T10:42:42;27.50;;;13.85;;
19758;SDS011;10038;42.662;23.278;2023-02-12T10:45:12;26.17;;;14.93;;
19758;SDS011;10038;42.662;23.278;2023-02-12T10:47:39;28.73;;;15.85;;
19758;SDS011;10038;42.662;23.278;2023-02-12T10:50:12;29.17;;;15.15;;
19758;SDS011;10038;42.662;23.278;2023-02-12T10:52:44;35.95;;;17.45;;
19758;SDS011;10038;42.662;23.278;2023-02-12T10:55:22;27.95;;;16.30;;
19758;SDS011;10038;42.662;23.278;2023-02-12T10:57:48;28.77;;;15.55;;
19758;SDS011;10038;42.662;23.278;2023-02-12T11:00:21;29.20;;;15.70;;
19758;SDS011;10038;42.662;23.278;2023-02-12T11:03:04;29.25;;;14.85;;
19758;SDS011;10038;42.662;23.278;2023-02-12T11:05:32;28.38;;;15.95;;
19758;SDS011;10038;42.662;23.278;2023-02-12T11:08:02;22.45;;;13.55;;
19758;SDS011;10038;42.662;23.278;2023-02-12T11:10:30;26.27;;;13.68;;
19758;SDS011;10038;42.662;23.278;2023-02-12T11:12:57;26.35;;;14.98;;
19758;SDS011;10038;42.662;23.278;2023-02-12T11:15:25;22.95;;;13.95;;
19758;SDS011;10038;42.662;23.278;2023-02-12T11:17:56;30.38;;;15.73;;
19758;SDS011;10038;42.662;23.278;2023-02-12T11:20:24;25.73;;;15.15;;
19758;SDS011;10038;42.662;23.278;2023-02-12T11:22:53;24.85;;;15.23;;
19758;SDS011;10038;42.662;23.278;2023-02-12T11:25:22;28.70;;;16.85;;
19758;SDS011;10038;42.662;23.278;2023-02-12T11:28:03;32.00;;;17.13;;
19758;SDS011;10038;42.662;23.278;2023-02-12T11:30:30;34.92;;;19.67;;
19758;SDS011;10038;42.662;23.278;2023-02-12T11:35:38;31.58;;;16.85;;
19758;SDS011;10038;42.662;23.278;2023-02-12T11:38:14;34.83;;;17.80;;
19758;SDS011;10038;42.662;23.278;2023-02-12T11:40:45;41.50;;;20.70;;
19758;SDS011;10038;42.662;23.278;2023-02-12T11:43:14;27.70;;;15.80;;
19758;SDS011;10038;42.662;23.278;2023-02-12T11:45:43;35.37;;;18.43;;
19758;SDS011;10038;42.662;23.278;2023-02-12T11:48:12;27.60;;;16.80;;
19758;SDS011;10038;42.662;23.278;2023-02-12T11:50:42;27.80;;;16.37;;
19758;SDS011;10038;42.662;23.278;2023-02-12T11:53:18;34.27;;;16.80;;
19758;SDS011;10038;42.662;23.278;2023-02-12T11:55:53;27.93;;;15.53;;
19758;SDS011;10038;42.662;23.278;2023-02-12T11:58:21;26.50;;;16.27;;
19758;SDS011;10038;42.662;23.278;2023-02-12T12:00:49;32.40;;;16.87;;
19758;SDS011;10038;42.662;23.278;2023-02-12T12:03:18;33.17;;;18.40;;
19758;SDS011;10038;42.662;23.278;2023-02-12T12:05:47;30.23;;;17.57;;
19758;SDS011;10038;42.662;23.278;2023-02-12T12:08:15;27.43;;;15.80;;
19758;SDS011;10038;42.662;23.278;2023-02-12T12:10:46;32.00;;;17.23;;
19758;SDS011;10038;42.662;23.278;2023-02-12T12:13:20;27.67;;;17.03;;
19758;SDS011;10038;42.662;23.278;2023-02-12T12:15:49;23.60;;;13.80;;
19758;SDS011;10038;42.662;23.278;2023-02-12T12:18:36;30.50;;;14.90;;
19758;SDS011;10038;42.662;23.278;2023-02-12T12:21:23;25.23;;;15.60;;
19758;SDS011;10038;42.662;23.278;2023-02-12T12:23:51;33.77;;;18.50;;
19758;SDS011;10038;42.662;23.278;2023-02-12T12:26:20;25.13;;;15.60;;
19758;SDS011;10038;42.662;23.278;2023-02-12T12:28:50;28.40;;;15.67;;
19758;SDS011;10038;42.662;23.278;2023-02-12T12:31:17;31.50;;;16.23;;
19758;SDS011;10038;42.662;23.278;2023-02-12T12:33:46;32.23;;;17.97;;
19758;SDS011;10038;42.662;23.278;2023-02-12T12:36:29;27.20;;;15.77;;
19758;SDS011;10038;42.662;23.278;2023-02-12T12:39:00;29.50;;;16.63;;
19758;SDS011;10038;42.662;23.278;2023-02-12T12:41:30;32.47;;;18.30;;
19758;SDS011;10038;42.662;23.278;2023-02-12T12:44:08;31.43;;;17.63;;
19758;SDS011;10038;42.662;23.278;2023-02-12T12:46:42;34.37;;;20.37;;
19758;SDS011;10038;42.662;23.278;2023-02-12T12:55:02;28.90;;;16.33;;
19758;SDS011;10038;42.662;23.278;2023-02-12T12:57:36;34.67;;;18.90;;
19758;SDS011;10038;42.662;23.278;2023-02-12T13:00:09;35.50;;;18.43;;
19758;SDS011;10038;42.662;23.278;2023-02-12T13:08:13;37.87;;;19.67;;
19758;SDS011;10038;42.662;23.278;2023-02-12T13:10:43;34.20;;;16.33;;
19758;SDS011;10038;42.662;23.278;2023-02-12T13:13:16;27.57;;;18.73;;
19758;SDS011;10038;42.662;23.278;2023-02-12T13:15:49;33.57;;;20.50;;
19758;SDS011;10038;42.662;23.278;2023-02-12T13:18:21;36.27;;;19.60;;
19758;SDS011;10038;42.662;23.278;2023-02-12T13:20:50;32.63;;;17.67;;
19758;SDS011;10038;42.662;23.278;2023-02-12T13:23:22;27.50;;;17.33;;
19758;SDS011;10038;42.662;23.278;2023-02-12T13:25:55;29.27;;;17.40;;
19758;SDS011;10038;42.662;23.278;2023-02-12T13:28:28;35.40;;;17.43;;
19758;SDS011;10038;42.662;23.278;2023-02-12T13:30:58;35.38;;;19.70;;
19758;SDS011;10038;42.662;23.278;2023-02-12T13:33:32;31.50;;;17.27;;
19758;SDS011;10038;42.662;23.278;2023-02-12T13:36:02;34.60;;;19.70;;
19758;SDS011;10038;42.662;23.278;2023-02-12T13:38:31;38.97;;;19.88;;
19758;SDS011;10038;42.662;23.278;2023-02-12T13:41:00;35.65;;;19.30;;
19758;SDS011;10038;42.662;23.278;2023-02-12T13:43:32;32.38;;;18.65;;
19758;SDS011;10038;42.662;23.278;2023-02-12T13:46:04;30.40;;;18.47;;
19758;SDS011;10038;42.662;23.278;2023-02-12T13:48:39;43.63;;;20.07;;
19758;SDS011;10038;42.662;23.278;2023-02-12T13:51:08;30.13;;;18.05;;
19758;SDS011;10038;42.662;23.278;2023-02-12T13:53:43;36.38;;;19.33;;
19758;SDS011;10038;42.662;23.278;2023-02-12T13:56:14;35.85;;;19.40;;
19758;SDS011;10038;42.662;23.278;2023-02-12T13:58:47;35.90;;;18.55;;
19758;SDS011;10038;42.662;23.278;2023-02-12T14:03:56;33.80;;;18.55;;
19758;SDS011;10038;42.662;23.278;2023-02-12T14:06:38;32.95;;;19.13;;
19758;SDS011;10038;42.662;23.278;2023-02-12T14:09:19;33.70;;;17.77;;
19758;SDS011;10038;42.662;23.278;2023-02-12T14:11:49;39.47;;;19.00;;
19758;SDS011;10038;42.662;23.278;2023-02-12T14:14:22;34.20;;;20.17;;
19758;SDS011;10038;42.662;23.278;2023-02-12T14:16:49;33.78;;;19.77;;
19758;SDS011;10038;42.662;23.278;2023-02-12T14:22:12;30.50;;;16.48;;
19758;SDS011;10038;42.662;23.278;2023-02-12T14:24:49;34.17;;;19.65;;
19758;SDS011;10038;42.662;23.278;2023-02-12T14:27:26;32.28;;;18.30;;
19758;SDS011;10038;42.662;23.278;2023-02-12T14:30:01;37.95;;;23.77;;
19758;SDS011;10038;42.662;23.278;2023-02-12T14:35:29;31.58;;;16.55;;
19758;SDS011;10038;42.662;23.278;2023-02-12T14:38:55;34.17;;;18.73;;
19758;SDS011;10038;42.662;23.278;2023-02-12T14:40:52;31.17;;;18.85;;
19758;SDS011;10038;42.662;23.278;2023-02-12T14:46:43;38.10;;;19.40;;
19758;SDS011;10038;42.662;23.278;2023-02-12T14:49:16;36.33;;;20.67;;
19758;SDS011;10038;42.662;23.278;2023-02-12T14:51:46;39.47;;;20.10;;
19758;SDS011;10038;42.662;23.278;2023-02-12T14:54:20;38.17;;;19.52;;
19758;SDS011;10038;42.662;23.278;2023-02-12T14:56:48;35.22;;;18.25;;
19758;SDS011;10038;42.662;23.278;2023-02-12T14:59:16;41.83;;;19.90;;
19758;SDS011;10038;42.662;23.278;2023-02-12T15:01:47;37.40;;;20.98;;